REP weather

Siem Reap International Airport
Siem Reap, Siem Reab, Cambodia

Public forecast

Using degrees Celsius for public forecast. Weather courtesy of forecast.io.

Current aviation weather report (METAR) for Siem Reap International Airport

Retrieved 2019/12/09 23:30 UTC (0 seconds ago):

VDSR 092330Z VRB01KT 9000 SCT015 17/16 Q1014

Aviation forecast (TAF) for Siem Reap International Airport

Forecast is more than 12 hours old.

Retrieved 2019/12/09 06:00 UTC (17 hours ago):

TAF VDPP 090500Z 0906/0924 03010KT 9999 SCT017 TAF VDSR 090500Z 0906/0924 36008KT 9999 SCT017